sensor_id;sensor_type;location;lat;lon;timestamp;temperature;humidity
15700;DHT22;7950;42.744;23.174;2023-01-19T00:01:46;13.80;99.90
15700;DHT22;7950;42.744;23.174;2023-01-19T00:04:15;13.70;99.90
15700;DHT22;7950;42.744;23.174;2023-01-19T00:06:43;13.80;99.90
15700;DHT22;7950;42.744;23.174;2023-01-19T00:09:12;13.70;99.90
15700;DHT22;7950;42.744;23.174;2023-01-19T00:11:41;13.70;99.90
15700;DHT22;7950;42.744;23.174;2023-01-19T00:14:10;13.70;99.90
15700;DHT22;7950;42.744;23.174;2023-01-19T00:16:38;13.80;99.90
15700;DHT22;7950;42.744;23.174;2023-01-19T00:19:08;13.80;99.90
15700;DHT22;7950;42.744;23.174;2023-01-19T00:21:36;13.80;99.90
15700;DHT22;7950;42.744;23.174;2023-01-19T00:24:05;13.80;99.90
15700;DHT22;7950;42.744;23.174;2023-01-19T00:26:34;13.70;99.90
15700;DHT22;7950;42.744;23.174;2023-01-19T00:29:08;13.60;99.90
15700;DHT22;7950;42.744;23.174;2023-01-19T00:32:02;13.60;99.90
15700;DHT22;7950;42.744;23.174;2023-01-19T00:34:32;13.60;99.90
15700;DHT22;7950;42.744;23.174;2023-01-19T00:37:30;13.60;99.90
15700;DHT22;7950;42.744;23.174;2023-01-19T00:39:58;13.60;99.90
15700;DHT22;7950;42.744;23.174;2023-01-19T00:42:27;13.70;99.90
15700;DHT22;7950;42.744;23.174;2023-01-19T00:45:10;13.70;99.90
15700;DHT22;7950;42.744;23.174;2023-01-19T00:47:47;13.80;99.90
15700;DHT22;7950;42.744;23.174;2023-01-19T00:50:20;13.70;99.90
15700;DHT22;7950;42.744;23.174;2023-01-19T00:52:50;13.80;99.70
15700;DHT22;7950;42.744;23.174;2023-01-19T00:55:19;13.70;99.90
15700;DHT22;7950;42.744;23.174;2023-01-19T00:57:48;13.80;99.40
15700;DHT22;7950;42.744;23.174;2023-01-19T01:00:19;13.80;99.50
15700;DHT22;7950;42.744;23.174;2023-01-19T01:02:49;13.80;99.80
15700;DHT22;7950;42.744;23.174;2023-01-19T01:05:19;13.70;99.90
15700;DHT22;7950;42.744;23.174;2023-01-19T01:07:49;13.60;99.90
15700;DHT22;7950;42.744;23.174;2023-01-19T08:22:30;15.80;72.20
15700;DHT22;7950;42.744;23.174;2023-01-19T08:24:58;16.40;71.20
15700;DHT22;7950;42.744;23.174;2023-01-19T08:27:27;16.30;70.20
15700;DHT22;7950;42.744;23.174;2023-01-19T08:30:27;16.30;70.70
15700;DHT22;7950;42.744;23.174;2023-01-19T08:32:56;16.40;70.10
15700;DHT22;7950;42.744;23.174;2023-01-19T08:35:31;16.60;69.50
15700;DHT22;7950;42.744;23.174;2023-01-19T08:38:02;17.00;69.30
15700;DHT22;7950;42.744;23.174;2023-01-19T08:57:25;16.60;68.50
15700;DHT22;7950;42.744;23.174;2023-01-19T08:59:54;17.00;67.60
15700;DHT22;7950;42.744;23.174;2023-01-19T09:02:23;17.30;68.20
15700;DHT22;7950;42.744;23.174;2023-01-19T09:04:52;17.40;67.50
15700;DHT22;7950;42.744;23.174;2023-01-19T09:07:21;17.40;67.00
15700;DHT22;7950;42.744;23.174;2023-01-19T09:09:50;17.20;67.10
15700;DHT22;7950;42.744;23.174;2023-01-19T09:12:47;17.00;67.50
15700;DHT22;7950;42.744;23.174;2023-01-19T09:15:16;16.80;67.70
15700;DHT22;7950;42.744;23.174;2023-01-19T09:17:45;16.60;68.30
15700;DHT22;7950;42.744;23.174;2023-01-19T09:20:14;16.60;69.00
15700;DHT22;7950;42.744;23.174;2023-01-19T09:22:43;16.60;68.40
15700;DHT22;7950;42.744;23.174;2023-01-19T09:25:13;16.40;69.00
15700;DHT22;7950;42.744;23.174;2023-01-19T09:27:42;16.30;69.80
15700;DHT22;7950;42.744;23.174;2023-01-19T09:30:13;16.20;70.40
15700;DHT22;7950;42.744;23.174;2023-01-19T09:32:43;16.00;70.40
15700;DHT22;7950;42.744;23.174;2023-01-19T09:35:12;15.90;70.90
15700;DHT22;7950;42.744;23.174;2023-01-19T09:37:45;15.70;71.30
15700;DHT22;7950;42.744;23.174;2023-01-19T09:40:15;15.60;72.40
15700;DHT22;7950;42.744;23.174;2023-01-19T09:42:51;15.60;73.00
15700;DHT22;7950;42.744;23.174;2023-01-19T09:45:28;15.60;73.30
15700;DHT22;7950;42.744;23.174;2023-01-19T09:48:19;15.50;73.20
15700;DHT22;7950;42.744;23.174;2023-01-19T09:51:22;15.50;73.80
15700;DHT22;7950;42.744;23.174;2023-01-19T09:53:59;15.40;74.10
15700;DHT22;7950;42.744;23.174;2023-01-19T09:56:37;15.50;74.50
15700;DHT22;7950;42.744;23.174;2023-01-19T09:59:17;15.60;73.80
15700;DHT22;7950;42.744;23.174;2023-01-19T10:02:02;15.60;74.00
15700;DHT22;7950;42.744;23.174;2023-01-19T10:04:40;15.70;74.40
15700;DHT22;7950;42.744;23.174;2023-01-19T10:19:50;15.70;72.50
15700;DHT22;7950;42.744;23.174;2023-01-19T10:22:24;15.90;74.30
15700;DHT22;7950;42.744;23.174;2023-01-19T10:24:57;16.10;72.90
15700;DHT22;7950;42.744;23.174;2023-01-19T10:27:32;16.00;72.30
15700;DHT22;7950;42.744;23.174;2023-01-19T10:30:06;16.20;72.90
15700;DHT22;7950;42.744;23.174;2023-01-19T10:32:42;16.40;72.20
15700;DHT22;7950;42.744;23.174;2023-01-19T10:35:16;16.40;71.20
15700;DHT22;7950;42.744;23.174;2023-01-19T10:37:51;16.40;70.40
15700;DHT22;7950;42.744;23.174;2023-01-19T10:40:28;16.40;70.60
15700;DHT22;7950;42.744;23.174;2023-01-19T10:43:00;16.20;70.90
15700;DHT22;7950;42.744;23.174;2023-01-19T10:45:50;15.90;71.40
15700;DHT22;7950;42.744;23.174;2023-01-19T10:48:18;15.80;71.80
15700;DHT22;7950;42.744;23.174;2023-01-19T10:51:00;15.80;71.90
15700;DHT22;7950;42.744;23.174;2023-01-19T10:53:30;15.70;72.80
15700;DHT22;7950;42.744;23.174;2023-01-19T10:56:26;15.50;73.40
15700;DHT22;7950;42.744;23.174;2023-01-19T10:58:59;15.50;73.20
15700;DHT22;7950;42.744;23.174;2023-01-19T11:01:29;15.50;73.80
15700;DHT22;7950;42.744;23.174;2023-01-19T11:04:24;15.60;74.30
15700;DHT22;7950;42.744;23.174;2023-01-19T11:07:12;15.60;74.50
15700;DHT22;7950;42.744;23.174;2023-01-19T11:09:42;15.50;74.20
15700;DHT22;7950;42.744;23.174;2023-01-19T11:12:19;15.50;74.70
15700;DHT22;7950;42.744;23.174;2023-01-19T11:14:50;15.40;73.50
15700;DHT22;7950;42.744;23.174;2023-01-19T11:17:22;15.40;73.70
15700;DHT22;7950;42.744;23.174;2023-01-19T11:19:54;15.50;74.10
15700;DHT22;7950;42.744;23.174;2023-01-19T11:22:28;15.50;74.40
15700;DHT22;7950;42.744;23.174;2023-01-19T11:25:00;15.50;74.60
15700;DHT22;7950;42.744;23.174;2023-01-19T11:27:32;15.70;74.40
15700;DHT22;7950;42.744;23.174;2023-01-19T11:30:06;15.90;74.00
15700;DHT22;7950;42.744;23.174;2023-01-19T11:32:45;16.00;74.10
15700;DHT22;7950;42.744;23.174;2023-01-19T11:35:35;16.10;73.70
15700;DHT22;7950;42.744;23.174;2023-01-19T11:38:21;16.10;71.90
15700;DHT22;7950;42.744;23.174;2023-01-19T11:40:54;16.00;72.20
15700;DHT22;7950;42.744;23.174;2023-01-19T11:43:27;15.90;72.20
15700;DHT22;7950;42.744;23.174;2023-01-19T11:46:14;15.90;72.20
15700;DHT22;7950;42.744;23.174;2023-01-19T11:48:47;15.80;72.30
15700;DHT22;7950;42.744;23.174;2023-01-19T11:51:24;15.80;72.00
15700;DHT22;7950;42.744;23.174;2023-01-19T11:54:01;15.80;72.10
15700;DHT22;7950;42.744;23.174;2023-01-19T11:56:33;15.80;71.80
15700;DHT22;7950;42.744;23.174;2023-01-19T11:59:02;15.90;71.70
15700;DHT22;7950;42.744;23.174;2023-01-19T12:01:33;15.90;72.10
15700;DHT22;7950;42.744;23.174;2023-01-19T12:04:06;15.90;72.30
15700;DHT22;7950;42.744;23.174;2023-01-19T12:06:47;15.80;72.30
15700;DHT22;7950;42.744;23.174;2023-01-19T12:09:22;15.80;71.50
15700;DHT22;7950;42.744;23.174;2023-01-19T12:11:57;15.80;72.10
15700;DHT22;7950;42.744;23.174;2023-01-19T12:14:35;15.80;72.10
15700;DHT22;7950;42.744;23.174;2023-01-19T12:17:15;15.80;72.20
15700;DHT22;7950;42.744;23.174;2023-01-19T12:19:54;15.80;72.30
15700;DHT22;7950;42.744;23.174;2023-01-19T12:22:28;15.80;71.90
15700;DHT22;7950;42.744;23.174;2023-01-19T12:25:12;15.80;72.20
15700;DHT22;7950;42.744;23.174;2023-01-19T12:27:45;15.80;71.50
15700;DHT22;7950;42.744;23.174;2023-01-19T12:30:19;15.70;71.30
15700;DHT22;7950;42.744;23.174;2023-01-19T12:32:50;15.70;72.40
15700;DHT22;7950;42.744;23.174;2023-01-19T12:35:53;15.70;72.70
15700;DHT22;7950;42.744;23.174;2023-01-19T12:38:34;15.70;72.60
15700;DHT22;7950;42.744;23.174;2023-01-19T12:41:20;15.60;72.80
15700;DHT22;7950;42.744;23.174;2023-01-19T12:44:14;15.60;73.10
15700;DHT22;7950;42.744;23.174;2023-01-19T12:46:49;15.60;73.40
15700;DHT22;7950;42.744;23.174;2023-01-19T12:49:27;15.60;72.30
15700;DHT22;7950;42.744;23.174;2023-01-19T12:52:18;15.70;72.10
15700;DHT22;7950;42.744;23.174;2023-01-19T12:54:56;15.80;71.70
15700;DHT22;7950;42.744;23.174;2023-01-19T12:57:31;15.80;72.20
15700;DHT22;7950;42.744;23.174;2023-01-19T13:00:05;15.80;72.30
15700;DHT22;7950;42.744;23.174;2023-01-19T13:02:54;15.80;72.30
15700;DHT22;7950;42.744;23.174;2023-01-19T13:08:27;15.70;72.60
15700;DHT22;7950;42.744;23.174;2023-01-19T13:15:28;15.60;73.10
15700;DHT22;7950;42.744;23.174;2023-01-19T13:18:02;15.60;74.00
15700;DHT22;7950;42.744;23.174;2023-01-19T13:20:41;15.60;74.90
15700;DHT22;7950;42.744;23.174;2023-01-19T13:23:20;15.50;74.50
15700;DHT22;7950;42.744;23.174;2023-01-19T13:26:01;15.50;74.10
15700;DHT22;7950;42.744;23.174;2023-01-19T13:28:36;15.60;74.30
15700;DHT22;7950;42.744;23.174;2023-01-19T13:34:38;15.70;73.50
15700;DHT22;7950;42.744;23.174;2023-01-19T13:37:16;15.80;73.00
15700;DHT22;7950;42.744;23.174;2023-01-19T13:39:49;15.90;72.70
15700;DHT22;7950;42.744;23.174;2023-01-19T13:42:26;15.90;72.40
15700;DHT22;7950;42.744;23.174;2023-01-19T13:45:05;16.00;71.40
15700;DHT22;7950;42.744;23.174;2023-01-19T13:47:47;15.90;71.00
15700;DHT22;7950;42.744;23.174;2023-01-19T13:50:19;15.90;70.80
15700;DHT22;7950;42.744;23.174;2023-01-19T13:52:49;15.90;71.00
15700;DHT22;7950;42.744;23.174;2023-01-19T13:55:22;15.90;71.20
15700;DHT22;7950;42.744;23.174;2023-01-19T13:58:19;15.90;71.00
15700;DHT22;7950;42.744;23.174;2023-01-19T14:00:48;15.90;70.40
15700;DHT22;7950;42.744;23.174;2023-01-19T14:03:20;15.90;70.70
15700;DHT22;7950;42.744;23.174;2023-01-19T14:05:51;15.80;70.80
15700;DHT22;7950;42.744;23.174;2023-01-19T14:08:21;15.80;71.30
15700;DHT22;7950;42.744;23.174;2023-01-19T14:11:01;15.70;71.60
15700;DHT22;7950;42.744;23.174;2023-01-19T14:13:31;15.70;71.20
15700;DHT22;7950;42.744;23.174;2023-01-19T14:16:12;15.60;71.30
15700;DHT22;7950;42.744;23.174;2023-01-19T14:18:44;15.50;71.70
15700;DHT22;7950;42.744;23.174;2023-01-19T14:21:14;15.40;71.90
15700;DHT22;7950;42.744;23.174;2023-01-19T14:23:46;15.40;71.30
15700;DHT22;7950;42.744;23.174;2023-01-19T14:26:39;15.40;71.90
15700;DHT22;7950;42.744;23.174;2023-01-19T14:29:36;15.40;72.30
15700;DHT22;7950;42.744;23.174;2023-01-19T14:32:13;15.30;72.30
15700;DHT22;7950;42.744;23.174;2023-01-19T14:34:46;15.30;72.50
15700;DHT22;7950;42.744;23.174;2023-01-19T14:37:19;15.30;72.40
15700;DHT22;7950;42.744;23.174;2023-01-19T14:39:51;15.30;72.80
15700;DHT22;7950;42.744;23.174;2023-01-19T14:42:27;15.30;73.10
15700;DHT22;7950;42.744;23.174;2023-01-19T14:45:24;15.20;72.80
15700;DHT22;7950;42.744;23.174;2023-01-19T14:47:57;15.20;73.20
15700;DHT22;7950;42.744;23.174;2023-01-19T14:50:32;15.20;73.30
15700;DHT22;7950;42.744;23.174;2023-01-19T14:53:17;15.20;73.40
15700;DHT22;7950;42.744;23.174;2023-01-19T14:55:51;15.20;73.30
15700;DHT22;7950;42.744;23.174;2023-01-19T14:58:25;15.20;73.20
15700;DHT22;7950;42.744;23.174;2023-01-19T15:00:54;15.20;73.40
15700;DHT22;7950;42.744;23.174;2023-01-19T15:03:23;15.20;73.40
15700;DHT22;7950;42.744;23.174;2023-01-19T15:06:13;15.20;73.40
15700;DHT22;7950;42.744;23.174;2023-01-19T15:08:44;15.20;74.20
15700;DHT22;7950;42.744;23.174;2023-01-19T15:11:20;15.10;74.40
15700;DHT22;7950;42.744;23.174;2023-01-19T15:13:50;15.10;75.00
15700;DHT22;7950;42.744;23.174;2023-01-19T15:16:21;15.00;75.80
15700;DHT22;7950;42.744;23.174;2023-01-19T15:18:50;15.00;76.10
15700;DHT22;7950;42.744;23.174;2023-01-19T15:21:21;14.90;76.40
15700;DHT22;7950;42.744;23.174;2023-01-19T15:23:52;14.90;77.20
15700;DHT22;7950;42.744;23.174;2023-01-19T15:26:23;14.80;78.20
15700;DHT22;7950;42.744;23.174;2023-01-19T15:28:54;14.70;78.50
15700;DHT22;7950;42.744;23.174;2023-01-19T15:31:24;14.60;78.60
15700;DHT22;7950;42.744;23.174;2023-01-19T15:33:53;14.60;79.10
15700;DHT22;7950;42.744;23.174;2023-01-19T15:36:23;14.60;79.10
15700;DHT22;7950;42.744;23.174;2023-01-19T15:38:52;14.70;78.90
15700;DHT22;7950;42.744;23.174;2023-01-19T15:41:24;14.60;79.50
15700;DHT22;7950;42.744;23.174;2023-01-19T15:43:56;14.60;80.10
15700;DHT22;7950;42.744;23.174;2023-01-19T15:46:25;14.50;80.60
15700;DHT22;7950;42.744;23.174;2023-01-19T15:49:17;14.40;80.70
15700;DHT22;7950;42.744;23.174;2023-01-19T15:51:47;14.40;81.40
15700;DHT22;7950;42.744;23.174;2023-01-19T15:54:17;14.30;81.90
15700;DHT22;7950;42.744;23.174;2023-01-19T15:56:46;14.30;82.10
15700;DHT22;7950;42.744;23.174;2023-01-19T15:59:14;14.20;82.30
15700;DHT22;7950;42.744;23.174;2023-01-19T16:01:43;14.20;82.60
15700;DHT22;7950;42.744;23.174;2023-01-19T16:04:12;14.10;82.60
15700;DHT22;7950;42.744;23.174;2023-01-19T16:06:43;14.10;82.90
15700;DHT22;7950;42.744;23.174;2023-01-19T16:09:13;14.10;83.50
15700;DHT22;7950;42.744;23.174;2023-01-19T16:11:44;14.10;85.10
15700;DHT22;7950;42.744;23.174;2023-01-19T16:14:13;14.00;85.80
15700;DHT22;7950;42.744;23.174;2023-01-19T16:16:43;14.00;86.50
15700;DHT22;7950;42.744;23.174;2023-01-19T16:19:13;13.90;87.30
15700;DHT22;7950;42.744;23.174;2023-01-19T16:21:42;13.90;88.40
15700;DHT22;7950;42.744;23.174;2023-01-19T16:24:12;13.80;90.10
15700;DHT22;7950;42.744;23.174;2023-01-19T16:26:41;13.70;91.20
15700;DHT22;7950;42.744;23.174;2023-01-19T16:29:09;13.50;92.90
15700;DHT22;7950;42.744;23.174;2023-01-19T16:31:40;13.30;95.50
15700;DHT22;7950;42.744;23.174;2023-01-19T16:34:11;13.10;98.90
15700;DHT22;7950;42.744;23.174;2023-01-19T16:36:40;12.90;99.90
15700;DHT22;7950;42.744;23.174;2023-01-19T16:39:15;12.70;99.90
15700;DHT22;7950;42.744;23.174;2023-01-19T16:41:44;12.60;99.90
15700;DHT22;7950;42.744;23.174;2023-01-19T16:44:15;12.40;99.90
15700;DHT22;7950;42.744;23.174;2023-01-19T16:46:45;12.10;99.90
15700;DHT22;7950;42.744;23.174;2023-01-19T16:49:17;11.90;99.90
15700;DHT22;7950;42.744;23.174;2023-01-19T16:51:47;11.80;99.90
15700;DHT22;7950;42.744;23.174;2023-01-19T16:54:19;11.70;99.90
15700;DHT22;7950;42.744;23.174;2023-01-19T16:57:16;11.50;99.90
15700;DHT22;7950;42.744;23.174;2023-01-19T16:59:45;11.20;99.90
15700;DHT22;7950;42.744;23.174;2023-01-19T17:02:13;11.00;99.90
15700;DHT22;7950;42.744;23.174;2023-01-19T17:04:42;10.80;99.90
15700;DHT22;7950;42.744;23.174;2023-01-19T17:07:11;10.70;99.90
15700;DHT22;7950;42.744;23.174;2023-01-19T17:09:41;10.60;99.90
15700;DHT22;7950;42.744;23.174;2023-01-19T17:12:10;10.50;99.90
15700;DHT22;7950;42.744;23.174;2023-01-19T17:14:38;10.40;99.90
15700;DHT22;7950;42.744;23.174;2023-01-19T17:17:08;10.40;99.90
15700;DHT22;7950;42.744;23.174;2023-01-19T17:19:37;10.30;99.90
15700;DHT22;7950;42.744;23.174;2023-01-19T17:22:06;10.30;99.90
15700;DHT22;7950;42.744;23.174;2023-01-19T17:24:35;10.20;99.90
15700;DHT22;7950;42.744;23.174;2023-01-19T17:27:12;10.20;99.90
15700;DHT22;7950;42.744;23.174;2023-01-19T17:29:40;10.20;99.90
15700;DHT22;7950;42.744;23.174;2023-01-19T17:32:09;10.20;99.90
15700;DHT22;7950;42.744;23.174;2023-01-19T17:34:37;10.20;99.90
15700;DHT22;7950;42.744;23.174;2023-01-19T17:37:06;10.10;99.90
15700;DHT22;7950;42.744;23.174;2023-01-19T17:39:48;10.10;99.90
15700;DHT22;7950;42.744;23.174;2023-01-19T17:42:17;10.10;99.90
15700;DHT22;7950;42.744;23.174;2023-01-19T17:44:46;10.10;99.90
15700;DHT22;7950;42.744;23.174;2023-01-19T17:47:15;10.20;99.90
15700;DHT22;7950;42.744;23.174;2023-01-19T17:49:43;10.20;99.90
15700;DHT22;7950;42.744;23.174;2023-01-19T17:52:12;10.20;99.90
15700;DHT22;7950;42.744;23.174;2023-01-19T17:54:43;10.20;99.90
15700;DHT22;7950;42.744;23.174;2023-01-19T17:57:12;10.20;99.90
15700;DHT22;7950;42.744;23.174;2023-01-19T17:59:42;10.20;99.90
15700;DHT22;7950;42.744;23.174;2023-01-19T18:02:12;10.10;99.90
15700;DHT22;7950;42.744;23.174;2023-01-19T18:04:41;10.10;99.90
15700;DHT22;7950;42.744;23.174;2023-01-19T18:07:10;10.10;99.90
15700;DHT22;7950;42.744;23.174;2023-01-19T18:09:39;10.00;99.90
15700;DHT22;7950;42.744;23.174;2023-01-19T18:12:07;9.90;99.90
15700;DHT22;7950;42.744;23.174;2023-01-19T18:14:37;9.80;99.90
15700;DHT22;7950;42.744;23.174;2023-01-19T18:17:07;9.80;99.90
15700;DHT22;7950;42.744;23.174;2023-01-19T18:19:36;9.80;99.90
15700;DHT22;7950;42.744;23.174;2023-01-19T18:22:05;9.80;99.90
15700;DHT22;7950;42.744;23.174;2023-01-19T18:24:33;9.80;99.90
15700;DHT22;7950;42.744;23.174;2023-01-19T18:27:02;9.90;99.90
15700;DHT22;7950;42.744;23.174;2023-01-19T18:29:31;9.80;99.90
15700;DHT22;7950;42.744;23.174;2023-01-19T18:32:00;9.80;99.90
15700;DHT22;7950;42.744;23.174;2023-01-19T18:34:30;9.60;99.90
15700;DHT22;7950;42.744;23.174;2023-01-19T18:36:59;9.50;99.90
15700;DHT22;7950;42.744;23.174;2023-01-19T18:39:27;9.40;99.90
15700;DHT22;7950;42.744;23.174;2023-01-19T18:41:56;9.40;99.90
15700;DHT22;7950;42.744;23.174;2023-01-19T18:44:26;9.30;99.90
15700;DHT22;7950;42.744;23.174;2023-01-19T18:46:55;9.30;99.90
15700;DHT22;7950;42.744;23.174;2023-01-19T18:49:23;9.30;99.90
15700;DHT22;7950;42.744;23.174;2023-01-19T18:51:54;9.30;99.90
15700;DHT22;7950;42.744;23.174;2023-01-19T18:54:22;9.30;99.90
15700;DHT22;7950;42.744;23.174;2023-01-19T18:56:51;9.30;99.90
15700;DHT22;7950;42.744;23.174;2023-01-19T18:59:19;9.30;99.90
15700;DHT22;7950;42.744;23.174;2023-01-19T19:01:48;9.30;99.90
15700;DHT22;7950;42.744;23.174;2023-01-19T19:04:17;9.20;99.90
15700;DHT22;7950;42.744;23.174;2023-01-19T19:06:46;9.20;99.90
15700;DHT22;7950;42.744;23.174;2023-01-19T19:09:16;9.10;99.90
15700;DHT22;7950;42.744;23.174;2023-01-19T19:11:54;9.10;99.90
15700;DHT22;7950;42.744;23.174;2023-01-19T19:14:22;9.00;99.90
15700;DHT22;7950;42.744;23.174;2023-01-19T19:16:51;8.90;99.90
15700;DHT22;7950;42.744;23.174;2023-01-19T19:19:20;8.80;99.90
15700;DHT22;7950;42.744;23.174;2023-01-19T19:21:48;8.80;99.90
15700;DHT22;7950;42.744;23.174;2023-01-19T19:24:21;8.70;99.90
15700;DHT22;7950;42.744;23.174;2023-01-19T19:26:50;8.70;99.90
15700;DHT22;7950;42.744;23.174;2023-01-19T19:29:19;8.70;99.90
15700;DHT22;7950;42.744;23.174;2023-01-19T19:31:48;8.70;99.90
15700;DHT22;7950;42.744;23.174;2023-01-19T19:34:16;8.70;99.90
15700;DHT22;7950;42.744;23.174;2023-01-19T19:36:45;8.70;99.90
15700;DHT22;7950;42.744;23.174;2023-01-19T19:39:13;8.70;99.90
15700;DHT22;7950;42.744;23.174;2023-01-19T19:41:43;8.80;99.90
15700;DHT22;7950;42.744;23.174;2023-01-19T19:44:12;8.80;99.90
15700;DHT22;7950;42.744;23.174;2023-01-19T19:47:09;8.80;99.90
15700;DHT22;7950;42.744;23.174;2023-01-19T19:49:38;8.80;99.90
15700;DHT22;7950;42.744;23.174;2023-01-19T19:52:06;8.80;99.90
15700;DHT22;7950;42.744;23.174;2023-01-19T19:54:35;8.80;99.90
15700;DHT22;7950;42.744;23.174;2023-01-19T19:57:05;8.80;99.90
15700;DHT22;7950;42.744;23.174;2023-01-19T19:59:33;8.90;99.90
15700;DHT22;7950;42.744;23.174;2023-01-19T20:02:02;8.90;99.90
15700;DHT22;7950;42.744;23.174;2023-01-19T20:04:30;8.90;99.90
15700;DHT22;7950;42.744;23.174;2023-01-19T20:06:59;9.00;99.90
15700;DHT22;7950;42.744;23.174;2023-01-19T20:09:28;9.00;99.90
15700;DHT22;7950;42.744;23.174;2023-01-19T20:11:56;9.10;99.90
15700;DHT22;7950;42.744;23.174;2023-01-19T20:14:26;9.20;99.90
15700;DHT22;7950;42.744;23.174;2023-01-19T20:16:55;9.20;99.90
15700;DHT22;7950;42.744;23.174;2023-01-19T20:19:23;9.20;99.90
15700;DHT22;7950;42.744;23.174;2023-01-19T20:21:52;9.30;99.90
15700;DHT22;7950;42.744;23.174;2023-01-19T20:24:35;9.20;99.90
15700;DHT22;7950;42.744;23.174;2023-01-19T20:27:04;9.20;99.90
15700;DHT22;7950;42.744;23.174;2023-01-19T20:29:34;9.10;99.90
15700;DHT22;7950;42.744;23.174;2023-01-19T20:32:02;9.00;99.90
15700;DHT22;7950;42.744;23.174;2023-01-19T20:34:31;9.00;99.90
15700;DHT22;7950;42.744;23.174;2023-01-19T20:37:01;8.90;99.90
15700;DHT22;7950;42.744;23.174;2023-01-19T20:39:31;8.90;99.90
15700;DHT22;7950;42.744;23.174;2023-01-19T20:42:02;8.90;99.90
15700;DHT22;7950;42.744;23.174;2023-01-19T20:44:37;8.90;99.90
15700;DHT22;7950;42.744;23.174;2023-01-19T20:47:06;8.80;99.90
15700;DHT22;7950;42.744;23.174;2023-01-19T20:49:35;8.80;99.90
15700;DHT22;7950;42.744;23.174;2023-01-19T20:52:04;8.90;99.90
15700;DHT22;7950;42.744;23.174;2023-01-19T20:54:32;8.90;99.90
15700;DHT22;7950;42.744;23.174;2023-01-19T20:57:01;8.80;99.90
15700;DHT22;7950;42.744;23.174;2023-01-19T20:59:30;8.80;99.90
15700;DHT22;7950;42.744;23.174;2023-01-19T21:02:05;8.80;99.90
15700;DHT22;7950;42.744;23.174;2023-01-19T21:04:38;8.80;99.90
15700;DHT22;7950;42.744;23.174;2023-01-19T21:07:07;8.80;99.90
15700;DHT22;7950;42.744;23.174;2023-01-19T21:09:36;8.70;99.90
15700;DHT22;7950;42.744;23.174;2023-01-19T21:12:05;8.70;99.90
15700;DHT22;7950;42.744;23.174;2023-01-19T21:14:35;8.60;99.90
15700;DHT22;7950;42.744;23.174;2023-01-19T21:17:25;8.50;99.90
15700;DHT22;7950;42.744;23.174;2023-01-19T21:19:53;8.40;99.90
15700;DHT22;7950;42.744;23.174;2023-01-19T21:22:22;8.30;99.90
15700;DHT22;7950;42.744;23.174;2023-01-19T21:24:50;8.20;99.90
15700;DHT22;7950;42.744;23.174;2023-01-19T21:27:19;8.10;99.90
15700;DHT22;7950;42.744;23.174;2023-01-19T21:29:48;8.10;99.90
15700;DHT22;7950;42.744;23.174;2023-01-19T21:32:16;8.10;99.90
15700;DHT22;7950;42.744;23.174;2023-01-19T21:34:46;8.00;99.90
15700;DHT22;7950;42.744;23.174;2023-01-19T21:37:15;8.00;99.90
15700;DHT22;7950;42.744;23.174;2023-01-19T21:39:44;8.00;99.90
15700;DHT22;7950;42.744;23.174;2023-01-19T21:42:13;8.00;99.90
15700;DHT22;7950;42.744;23.174;2023-01-19T21:44:42;8.00;99.90
15700;DHT22;7950;42.744;23.174;2023-01-19T21:47:10;8.00;99.90
15700;DHT22;7950;42.744;23.174;2023-01-19T21:49:39;8.00;99.90
15700;DHT22;7950;42.744;23.174;2023-01-19T21:52:09;8.00;99.90
15700;DHT22;7950;42.744;23.174;2023-01-19T21:54:37;7.90;99.90
15700;DHT22;7950;42.744;23.174;2023-01-19T21:57:06;7.90;99.90
15700;DHT22;7950;42.744;23.174;2023-01-19T21:59:34;8.00;99.90
15700;DHT22;7950;42.744;23.174;2023-01-19T22:02:03;8.00;99.90
15700;DHT22;7950;42.744;23.174;2023-01-19T22:04:32;7.90;99.90
15700;DHT22;7950;42.744;23.174;2023-01-19T22:07:10;7.90;99.90
15700;DHT22;7950;42.744;23.174;2023-01-19T22:09:38;7.90;99.90
15700;DHT22;7950;42.744;23.174;2023-01-19T22:12:07;7.90;99.90
15700;DHT22;7950;42.744;23.174;2023-01-19T22:14:36;7.90;99.90
15700;DHT22;7950;42.744;23.174;2023-01-19T22:17:05;7.90;99.90
15700;DHT22;7950;42.744;23.174;2023-01-19T22:19:51;7.80;99.90
15700;DHT22;7950;42.744;23.174;2023-01-19T22:22:21;7.80;99.90
15700;DHT22;7950;42.744;23.174;2023-01-19T22:27:53;7.90;99.90
15700;DHT22;7950;42.744;23.174;2023-01-19T22:30:22;8.00;99.90
15700;DHT22;7950;42.744;23.174;2023-01-19T22:32:55;8.00;99.90
15700;DHT22;7950;42.744;23.174;2023-01-19T22:35:24;8.00;99.90
15700;DHT22;7950;42.744;23.174;2023-01-19T22:37:54;8.10;99.90
15700;DHT22;7950;42.744;23.174;2023-01-19T22:40:22;8.10;99.90
15700;DHT22;7950;42.744;23.174;2023-01-19T22:42:51;8.10;99.90
15700;DHT22;7950;42.744;23.174;2023-01-19T22:45:19;8.10;99.90
15700;DHT22;7950;42.744;23.174;2023-01-19T22:47:48;8.20;99.90
15700;DHT22;7950;42.744;23.174;2023-01-19T22:50:23;8.10;99.90
15700;DHT22;7950;42.744;23.174;2023-01-19T22:52:55;8.10;99.90
15700;DHT22;7950;42.744;23.174;2023-01-19T22:55:24;8.10;99.90
15700;DHT22;7950;42.744;23.174;2023-01-19T22:57:53;8.00;99.90
15700;DHT22;7950;42.744;23.174;2023-01-19T23:00:26;8.00;99.90
15700;DHT22;7950;42.744;23.174;2023-01-19T23:02:54;8.00;99.90
15700;DHT22;7950;42.744;23.174;2023-01-19T23:05:23;7.90;99.90
15700;DHT22;7950;42.744;23.174;2023-01-19T23:07:52;7.90;99.90
15700;DHT22;7950;42.744;23.174;2023-01-19T23:10:22;7.90;99.90
15700;DHT22;7950;42.744;23.174;2023-01-19T23:12:50;7.90;99.90
15700;DHT22;7950;42.744;23.174;2023-01-19T23:15:19;8.00;99.90
15700;DHT22;7950;42.744;23.174;2023-01-19T23:17:48;8.00;99.90
15700;DHT22;7950;42.744;23.174;2023-01-19T23:20:19;8.00;99.90
15700;DHT22;7950;42.744;23.174;2023-01-19T23:22:48;8.00;99.90
15700;DHT22;7950;42.744;23.174;2023-01-19T23:25:44;8.00;99.90
15700;DHT22;7950;42.744;23.174;2023-01-19T23:28:12;8.00;99.90
15700;DHT22;7950;42.744;23.174;2023-01-19T23:30:41;8.00;99.90
15700;DHT22;7950;42.744;23.174;2023-01-19T23:33:09;7.90;99.90
15700;DHT22;7950;42.744;23.174;2023-01-19T23:35:38;7.90;99.90
15700;DHT22;7950;42.744;23.174;2023-01-19T23:38:07;7.90;99.90
15700;DHT22;7950;42.744;23.174;2023-01-19T23:40:35;7.80;99.90
15700;DHT22;7950;42.744;23.174;2023-01-19T23:43:05;7.70;99.90
15700;DHT22;7950;42.744;23.174;2023-01-19T23:45:34;7.60;99.90
15700;DHT22;7950;42.744;23.174;2023-01-19T23:48:03;7.50;99.90
15700;DHT22;7950;42.744;23.174;2023-01-19T23:50:32;7.50;99.90
15700;DHT22;7950;42.744;23.174;2023-01-19T23:53:00;7.40;99.90
15700;DHT22;7950;42.744;23.174;2023-01-19T23:55:29;7.30;99.90
15700;DHT22;7950;42.744;23.174;2023-01-19T23:57:57;7.20;99.90
